createdAt,value
2017-09-04T00:00:24.944Z,70.10
2017-09-04T00:02:53.084Z,70.20
2017-09-04T00:05:21.212Z,70.30
2017-09-04T00:07:49.488Z,70.30
2017-09-04T00:10:17.648Z,70.30
2017-09-04T00:12:45.778Z,70.70
2017-09-04T00:15:13.917Z,71.80
2017-09-04T00:17:42.086Z,71.10
2017-09-04T00:20:10.251Z,70.80
2017-09-04T00:22:38.381Z,70.60
2017-09-04T00:25:06.512Z,70.60
2017-09-04T00:27:34.782Z,70.60
2017-09-04T00:30:02.908Z,70.40
2017-09-04T00:32:31.064Z,70.70
2017-09-04T00:34:59.206Z,70.90
2017-09-04T00:37:27.366Z,70.90
2017-09-04T00:39:55.487Z,71.10
2017-09-04T00:42:23.761Z,71.20
2017-09-04T00:44:51.896Z,71.50
2017-09-04T00:47:20.040Z,71.30
2017-09-04T00:49:48.196Z,71.30
2017-09-04T00:52:16.332Z,71.60
2017-09-04T00:54:44.485Z,71.80
2017-09-04T00:57:12.627Z,71.70
2017-09-04T00:59:40.752Z,71.30
2017-09-04T01:02:09.024Z,71.30
2017-09-04T01:04:37.191Z,71.20
2017-09-04T01:07:05.336Z,71.10
2017-09-04T01:09:33.463Z,71.10
2017-09-04T01:12:01.723Z,71.20
2017-09-04T01:14:29.849Z,71.20
2017-09-04T01:16:58.001Z,71.10
2017-09-04T01:19:26.144Z,71.40
2017-09-04T01:21:54.312Z,71.40
2017-09-04T01:24:22.461Z,71.60
2017-09-04T01:26:50.589Z,71.70
2017-09-04T01:29:18.862Z,71.60
2017-09-04T01:31:47.032Z,71.70
2017-09-04T01:34:15.191Z,71.60
2017-09-04T01:36:43.328Z,71.80
2017-09-04T01:39:11.508Z,72.60
2017-09-04T01:41:39.645Z,71.90
2017-09-04T01:44:07.934Z,71.80
2017-09-04T01:46:36.082Z,71.60
2017-09-04T01:49:04.208Z,71.70
2017-09-04T01:51:33.577Z,71.70
2017-09-04T01:54:01.716Z,71.70
2017-09-04T01:56:29.984Z,71.70
2017-09-04T01:58:58.124Z,71.80
2017-09-04T02:01:26.402Z,72.10
2017-09-04T02:03:54.540Z,72.20
2017-09-04T02:06:22.680Z,72.30
2017-09-04T02:08:50.848Z,72.70
2017-09-04T02:11:18.988Z,73.00
2017-09-04T02:13:47.265Z,73.20
2017-09-04T02:16:15.406Z,74.50
2017-09-04T02:18:43.577Z,74.40
2017-09-04T02:21:11.726Z,74.50
2017-09-04T02:23:39.875Z,74.30
2017-09-04T02:26:08.040Z,74.70
2017-09-04T02:28:36.181Z,74.50
2017-09-04T02:31:04.485Z,74.50
2017-09-04T02:33:32.637Z,74.30
2017-09-04T02:36:00.782Z,74.10
2017-09-04T02:38:29.045Z,73.80
2017-09-04T02:40:57.184Z,73.70
2017-09-04T02:43:25.356Z,73.40
2017-09-04T02:45:53.496Z,73.60
2017-09-04T02:48:21.640Z,73.60
2017-09-04T02:50:49.829Z,73.50
2017-09-04T02:53:17.972Z,73.20
2017-09-04T02:55:46.257Z,73.30
2017-09-04T02:58:14.389Z,73.20
2017-09-04T03:00:42.533Z,73.20
2017-09-04T03:03:10.708Z,73.40
2017-09-04T03:05:38.844Z,73.40
2017-09-04T03:08:07.003Z,73.40
2017-09-04T03:10:35.280Z,73.80
2017-09-04T03:13:03.433Z,73.90
2017-09-04T03:15:31.628Z,74.20
2017-09-04T03:17:59.773Z,74.20
2017-09-04T03:20:27.937Z,74.30
2017-09-04T03:22:56.085Z,74.50
2017-09-04T03:25:24.225Z,74.40
2017-09-04T03:27:52.404Z,74.20
2017-09-04T03:30:20.555Z,74.10
2017-09-04T03:32:48.844Z,73.80
2017-09-04T03:35:16.988Z,74.20
2017-09-04T03:37:45.146Z,74.40
2017-09-04T03:40:13.284Z,74.30
2017-09-04T03:42:41.483Z,74.40
2017-09-04T03:45:09.617Z,74.20
2017-09-04T03:47:37.752Z,74.30
2017-09-04T03:50:06.040Z,73.90
2017-09-04T03:52:34.172Z,74.00
2017-09-04T03:55:02.336Z,73.90
2017-09-04T03:57:30.477Z,73.80
2017-09-04T03:59:58.647Z,74.40
2017-09-04T04:02:26.789Z,74.50
2017-09-04T04:04:54.928Z,74.40
2017-09-04T04:07:23.213Z,74.30
2017-09-04T04:09:51.353Z,74.20
2017-09-04T04:12:19.500Z,74.20
2017-09-04T04:14:47.673Z,74.40
2017-09-04T04:17:15.845Z,74.40
2017-09-04T04:19:44.022Z,74.30
2017-09-04T04:22:12.448Z,74.00
2017-09-04T04:24:40.736Z,74.00
2017-09-04T04:27:08.881Z,74.30
2017-09-04T04:29:37.056Z,74.30
2017-09-04T04:32:05.213Z,74.10
2017-09-04T04:34:33.353Z,74.10
2017-09-04T04:37:01.515Z,73.90
2017-09-04T04:39:29.652Z,73.90
2017-09-04T04:41:59.154Z,74.10
2017-09-04T04:44:27.286Z,75.10
2017-09-04T04:46:55.424Z,74.40
2017-09-04T04:49:23.581Z,74.30
2017-09-04T04:51:51.733Z,74.30
2017-09-04T04:54:19.896Z,74.50
2017-09-04T04:56:48.029Z,75.20
2017-09-04T04:59:16.315Z,76.20
2017-09-04T05:01:45.644Z,76.10
2017-09-04T05:04:16.121Z,76.30
2017-09-04T05:06:46.403Z,76.20
2017-09-04T05:09:14.540Z,75.90
2017-09-04T05:11:42.680Z,75.90
2017-09-04T05:14:10.851Z,76.30
2017-09-04T05:16:39.005Z,76.20
2017-09-04T05:19:07.281Z,76.20
2017-09-04T05:21:35.446Z,76.10
2017-09-04T05:24:03.612Z,75.80
2017-09-04T05:26:31.794Z,75.70
2017-09-04T05:28:59.932Z,76.20
2017-09-04T05:31:28.208Z,76.10
2017-09-04T05:33:56.358Z,76.10
2017-09-04T05:36:24.495Z,76.00
2017-09-04T05:38:52.667Z,76.00
2017-09-04T05:41:20.800Z,75.90
2017-09-04T05:43:48.964Z,76.10
2017-09-04T05:46:17.092Z,76.30
2017-09-04T05:48:45.376Z,77.40
2017-09-04T05:51:13.517Z,77.40
2017-09-04T05:53:41.661Z,77.50
2017-09-04T05:56:09.933Z,77.80
2017-09-04T05:58:38.060Z,78.00
2017-09-04T06:01:06.200Z,77.90
2017-09-04T06:03:34.365Z,78.30
2017-09-04T06:06:02.649Z,79.20
2017-09-04T06:08:30.789Z,80.00
2017-09-04T06:10:58.926Z,80.80
2017-09-04T06:13:27.088Z,80.20
2017-09-04T06:15:55.233Z,79.70
2017-09-04T06:18:23.434Z,79.40
2017-09-04T06:20:51.536Z,79.00
2017-09-04T06:23:19.857Z,80.70
2017-09-04T06:25:48.004Z,81.40
2017-09-04T06:28:16.172Z,81.10
2017-09-04T06:30:44.314Z,80.80
2017-09-04T06:33:12.468Z,80.70
2017-09-04T06:35:40.618Z,80.80
2017-09-04T06:38:08.776Z,80.70
2017-09-04T06:40:36.919Z,80.30
2017-09-04T06:43:05.197Z,80.20
2017-09-04T06:45:33.365Z,80.30
2017-09-04T06:48:01.544Z,80.30
2017-09-04T06:50:29.681Z,81.20
2017-09-04T06:52:57.823Z,80.70
2017-09-04T06:55:25.992Z,81.00
2017-09-04T06:57:54.278Z,80.30
2017-09-04T07:00:22.419Z,80.20
2017-09-04T07:02:50.560Z,80.40
2017-09-04T07:05:18.735Z,81.30
2017-09-04T07:07:46.881Z,81.30
2017-09-04T07:10:15.057Z,80.60
2017-09-04T07:12:43.196Z,80.70
2017-09-04T07:15:11.468Z,80.50
2017-09-04T07:17:39.620Z,80.70
2017-09-04T07:20:07.832Z,80.00
2017-09-04T07:22:36.004Z,80.00
2017-09-04T07:25:04.153Z,80.00
2017-09-04T07:27:32.329Z,80.40
2017-09-04T07:30:00.473Z,79.90
2017-09-04T07:32:28.765Z,79.70
2017-09-04T07:34:56.977Z,79.40
2017-09-04T07:37:25.125Z,78.80
2017-09-04T07:39:53.298Z,78.90
2017-09-04T07:42:21.460Z,78.10
2017-09-04T07:44:49.616Z,78.40
2017-09-04T07:47:17.792Z,78.40
2017-09-04T07:49:45.939Z,77.60
2017-09-04T07:52:14.218Z,78.00
2017-09-04T07:54:42.353Z,77.80
2017-09-04T07:57:10.522Z,77.40
2017-09-04T07:59:38.661Z,76.00
2017-09-04T08:02:06.840Z,76.10
2017-09-04T08:04:34.988Z,77.00
2017-09-04T08:07:03.144Z,76.10
2017-09-04T08:09:31.406Z,75.80
2017-09-04T08:11:59.544Z,74.40
2017-09-04T08:14:27.746Z,74.50
2017-09-04T08:16:55.892Z,75.60
2017-09-04T08:19:24.035Z,74.40
2017-09-04T08:21:52.214Z,73.80
2017-09-04T08:24:20.349Z,74.10
2017-09-04T08:26:48.572Z,73.90
2017-09-04T08:29:16.743Z,74.10
2017-09-04T08:31:44.868Z,73.80
2017-09-04T08:34:13.072Z,73.70
2017-09-04T08:36:41.210Z,73.90
2017-09-04T08:39:09.344Z,73.50
2017-09-04T08:41:37.526Z,72.40
2017-09-04T08:44:05.677Z,72.50
2017-09-04T08:46:33.823Z,72.00
2017-09-04T08:49:02.097Z,71.30
2017-09-04T08:51:30.224Z,71.10
2017-09-04T08:53:58.383Z,71.20
2017-09-04T08:56:26.559Z,70.40
2017-09-04T08:58:54.697Z,71.10
2017-09-04T09:01:22.853Z,69.80
2017-09-04T09:03:51.001Z,69.90
2017-09-04T09:06:19.140Z,69.20
2017-09-04T09:08:47.413Z,67.60
2017-09-04T09:11:15.569Z,68.20
2017-09-04T09:13:43.690Z,67.30
2017-09-04T09:16:11.872Z,66.20
2017-09-04T09:18:40.016Z,65.10
2017-09-04T09:21:08.224Z,62.90
2017-09-04T09:23:36.363Z,62.70
2017-09-04T09:26:04.496Z,59.50
2017-09-04T09:28:32.656Z,59.80
2017-09-04T09:31:00.796Z,59.80
2017-09-04T09:33:28.957Z,60.20
2017-09-04T09:35:57.110Z,60.60
2017-09-04T09:38:25.414Z,60.00
2017-09-04T09:40:53.548Z,59.50
2017-09-04T09:43:21.688Z,58.40
2017-09-04T09:45:49.850Z,59.40
2017-09-04T09:48:18.006Z,57.90
2017-09-04T09:50:46.198Z,58.50
2017-09-04T09:53:14.334Z,57.60
2017-09-04T09:55:42.608Z,57.70
2017-09-04T09:58:10.756Z,60.00
2017-09-04T10:00:38.930Z,58.40
2017-09-04T10:03:07.065Z,59.20
2017-09-04T10:05:35.202Z,57.40
2017-09-04T10:08:03.487Z,57.40
2017-09-04T10:10:31.618Z,58.50
2017-09-04T10:12:59.757Z,57.60
2017-09-04T10:15:28.038Z,57.70
2017-09-04T10:17:56.206Z,56.30
2017-09-04T10:20:24.349Z,58.60
2017-09-04T10:22:52.485Z,56.70
2017-09-04T10:25:20.681Z,57.90
2017-09-04T10:27:48.834Z,58.30
2017-09-04T10:30:17.017Z,57.10
2017-09-04T10:32:45.145Z,57.30
2017-09-04T10:35:13.288Z,58.30
2017-09-04T10:37:41.471Z,57.00
2017-09-04T10:40:10.949Z,58.00
2017-09-04T10:42:39.094Z,56.80
2017-09-04T10:45:07.248Z,55.40
2017-09-04T10:47:35.412Z,53.80
2017-09-04T10:50:03.560Z,55.40
2017-09-04T10:52:31.754Z,54.90
2017-09-04T10:54:59.900Z,55.10
2017-09-04T10:57:28.170Z,55.00
2017-09-04T10:59:56.348Z,55.70
2017-09-04T11:02:24.508Z,54.70
2017-09-04T11:04:52.669Z,54.20
2017-09-04T11:07:20.821Z,52.30
2017-09-04T11:09:49.116Z,54.80
2017-09-04T11:12:17.315Z,53.10
2017-09-04T11:14:45.494Z,51.60
2017-09-04T11:17:13.760Z,51.70
2017-09-04T11:19:42.413Z,52.20
2017-09-04T11:22:10.616Z,50.70
2017-09-04T11:24:38.768Z,52.60
2017-09-04T11:27:06.925Z,52.00
2017-09-04T11:29:35.226Z,52.50
2017-09-04T11:32:03.405Z,50.40
2017-09-04T11:34:31.594Z,51.70
2017-09-04T11:36:59.774Z,51.20
2017-09-04T11:39:27.965Z,52.70
2017-09-04T11:41:56.115Z,52.00
2017-09-04T11:44:24.277Z,50.90
2017-09-04T11:46:52.551Z,53.10
2017-09-04T11:49:20.886Z,51.20
2017-09-04T11:51:49.104Z,49.50
2017-09-04T11:54:17.288Z,47.60
2017-09-04T11:56:45.442Z,50.80
2017-09-04T11:59:13.638Z,51.40
2017-09-04T12:01:42.021Z,48.20
2017-09-04T12:04:10.330Z,49.30
2017-09-04T12:06:38.721Z,49.20
2017-09-04T12:09:06.885Z,49.50
2017-09-04T12:11:35.082Z,49.30
2017-09-04T12:14:03.580Z,51.80
2017-09-04T12:16:31.770Z,50.20
2017-09-04T12:18:59.921Z,50.40
2017-09-04T12:21:28.216Z,49.40
2017-09-04T12:23:56.412Z,49.30
2017-09-04T12:26:24.584Z,49.90
2017-09-04T12:28:52.760Z,49.50
2017-09-04T12:31:20.951Z,50.60
2017-09-04T12:33:49.145Z,51.20
2017-09-04T12:36:17.304Z,52.80
2017-09-04T12:38:47.768Z,53.20
2017-09-04T12:41:15.905Z,52.20
2017-09-04T12:43:44.068Z,51.70
2017-09-04T12:46:13.115Z,50.70
2017-09-04T12:48:41.325Z,50.20
2017-09-04T12:51:09.501Z,50.70
2017-09-04T12:53:38.504Z,51.40
2017-09-04T12:56:07.295Z,51.50
2017-09-04T12:58:35.519Z,52.10
2017-09-04T13:01:03.909Z,51.80
2017-09-04T13:03:32.497Z,51.00
2017-09-04T13:09:37.404Z,52.50
2017-09-04T13:12:11.942Z,52.10
2017-09-04T13:14:40.224Z,52.40
2017-09-04T13:17:08.438Z,51.00
2017-09-04T13:19:36.610Z,51.90
2017-09-04T13:22:04.777Z,51.40
2017-09-04T13:24:32.917Z,52.80
2017-09-04T13:27:01.231Z,51.40
2017-09-04T13:29:29.380Z,51.10
2017-09-04T13:31:57.678Z,49.10
2017-09-04T13:34:25.837Z,50.90
2017-09-04T13:36:53.992Z,51.30
2017-09-04T13:39:22.173Z,50.90
2017-09-04T13:41:50.336Z,51.60
2017-09-04T13:44:19.394Z,52.80
2017-09-04T13:46:47.536Z,52.80
2017-09-04T13:49:15.709Z,52.40
2017-09-04T13:51:43.864Z,51.40
2017-09-04T13:54:12.048Z,51.60
2017-09-04T13:56:40.198Z,51.10
2017-09-04T13:59:08.491Z,52.00
2017-09-04T14:01:36.633Z,52.90
2017-09-04T14:04:04.848Z,52.50
2017-09-04T14:06:32.994Z,50.90
2017-09-04T14:09:01.148Z,51.00
2017-09-04T14:11:29.353Z,48.90
2017-09-04T14:13:57.502Z,49.50
2017-09-04T14:16:25.659Z,51.00
2017-09-04T14:18:53.845Z,51.10
2017-09-04T14:21:22.018Z,51.10
2017-09-04T14:23:50.172Z,49.20
2017-09-04T14:26:18.399Z,50.00
2017-09-04T14:28:46.542Z,50.90
2017-09-04T14:31:14.744Z,50.80
2017-09-04T14:33:42.895Z,50.60
2017-09-04T14:36:11.052Z,49.60
2017-09-04T14:38:39.249Z,51.70
2017-09-04T14:41:07.431Z,49.80
2017-09-04T14:43:35.568Z,50.00
2017-09-04T14:46:03.753Z,51.20
2017-09-04T14:48:31.973Z,52.40
2017-09-04T14:51:00.152Z,53.10
2017-09-04T14:53:29.057Z,51.30
2017-09-04T14:55:57.237Z,51.10
2017-09-04T14:58:25.484Z,51.10
2017-09-04T15:00:53.779Z,50.80
2017-09-04T15:03:21.954Z,50.70
2017-09-04T15:05:50.182Z,49.30
2017-09-04T15:08:18.351Z,50.40
2017-09-04T15:10:46.517Z,50.80
2017-09-04T15:13:15.980Z,51.30
2017-09-04T15:15:44.127Z,50.70
2017-09-04T15:18:12.406Z,50.20
2017-09-04T15:20:40.549Z,49.80
2017-09-04T15:23:08.760Z,50.10
2017-09-04T15:25:36.924Z,51.30
2017-09-04T15:28:05.070Z,51.70
2017-09-04T15:30:34.013Z,50.90
2017-09-04T15:33:02.173Z,50.90
2017-09-04T15:35:31.212Z,50.70
2017-09-04T15:37:59.361Z,50.60
2017-09-04T15:40:27.590Z,51.10
2017-09-04T15:42:55.777Z,52.20
2017-09-04T15:45:23.950Z,52.20
2017-09-04T15:47:52.182Z,52.90
2017-09-04T15:50:20.327Z,53.80
2017-09-04T15:52:48.616Z,53.60
2017-09-04T15:55:16.811Z,51.80
2017-09-04T15:57:45.019Z,52.00
2017-09-04T16:00:13.193Z,51.00
2017-09-04T16:02:41.344Z,50.60
2017-09-04T16:05:09.580Z,51.10
2017-09-04T16:07:37.734Z,52.20
2017-09-04T16:10:06.045Z,51.80
2017-09-04T16:12:34.218Z,51.70
2017-09-04T16:15:02.370Z,51.00
2017-09-04T16:17:30.549Z,52.70
2017-09-04T16:19:58.718Z,51.80
2017-09-04T16:22:26.929Z,51.10
2017-09-04T16:24:55.229Z,51.70
2017-09-04T16:27:23.760Z,51.70
2017-09-04T16:29:51.913Z,51.80
2017-09-04T16:32:20.095Z,51.40
2017-09-04T16:34:48.274Z,50.40
2017-09-04T16:37:16.457Z,51.20
2017-09-04T16:39:44.614Z,51.20
2017-09-04T16:42:12.889Z,52.10
2017-09-04T16:44:41.098Z,51.10
2017-09-04T16:47:09.252Z,52.20
2017-09-04T16:49:37.442Z,51.60
2017-09-04T16:52:05.600Z,52.00
2017-09-04T16:54:33.732Z,52.70
2017-09-04T16:57:02.020Z,51.80
2017-09-04T16:59:30.158Z,51.80
2017-09-04T17:01:58.326Z,52.50
2017-09-04T17:04:26.501Z,52.40
2017-09-04T17:06:54.683Z,51.80
2017-09-04T17:09:22.853Z,52.30
2017-09-04T17:11:51.151Z,51.90
2017-09-04T17:14:19.309Z,52.30
2017-09-04T17:16:47.463Z,52.50
2017-09-04T17:19:15.649Z,53.20
2017-09-04T17:21:43.821Z,53.00
2017-09-04T17:24:12.016Z,53.30
2017-09-04T17:26:40.165Z,52.20
2017-09-04T17:29:08.320Z,52.70
2017-09-04T17:31:36.494Z,53.20
2017-09-04T17:34:04.698Z,54.20
2017-09-04T17:36:32.974Z,53.40
2017-09-04T17:39:01.149Z,54.00
2017-09-04T17:41:29.326Z,54.60
2017-09-04T17:43:57.850Z,54.50
2017-09-04T17:46:26.005Z,54.80
2017-09-04T17:48:54.316Z,55.00
2017-09-04T17:51:22.518Z,55.20
2017-09-04T17:53:50.841Z,55.60
2017-09-04T17:56:19.004Z,55.60
2017-09-04T17:58:47.163Z,55.60
2017-09-04T18:01:16.141Z,55.80
2017-09-04T18:03:44.300Z,55.80
2017-09-04T18:06:12.888Z,56.10
2017-09-04T18:08:41.026Z,56.10
2017-09-04T18:11:10.301Z,56.40
2017-09-04T18:13:38.586Z,56.40
2017-09-04T18:16:06.738Z,57.20
2017-09-04T18:18:34.925Z,57.00
2017-09-04T18:21:03.085Z,57.00
2017-09-04T18:23:32.261Z,57.10
2017-09-04T18:26:00.887Z,57.80
2017-09-04T18:28:29.066Z,58.60
2017-09-04T18:31:09.320Z,59.50
2017-09-04T18:33:37.524Z,59.80
2017-09-04T18:36:05.748Z,60.60
2017-09-04T18:38:34.030Z,60.30
2017-09-04T18:41:02.241Z,61.50
2017-09-04T18:46:28.549Z,62.80
2017-09-04T18:52:00.284Z,63.40
2017-09-04T18:54:42.364Z,63.80
2017-09-04T19:00:36.358Z,64.00
2017-09-04T19:03:04.618Z,64.30
2017-09-04T19:05:32.877Z,65.10
2017-09-04T19:11:05.621Z,64.90
2017-09-04T19:14:07.514Z,65.40
2017-09-04T19:44:29.406Z,66.60
2017-09-04T19:46:57.548Z,66.50
2017-09-04T19:49:25.722Z,67.40
2017-09-04T19:51:53.857Z,66.70
2017-09-04T19:54:22.027Z,66.20
2017-09-04T19:56:50.249Z,66.00
2017-09-04T19:59:18.386Z,66.10
2017-09-04T20:01:46.554Z,66.70
2017-09-04T20:04:14.843Z,66.40
2017-09-04T20:06:43.025Z,66.30
2017-09-04T20:09:11.237Z,66.50
2017-09-04T20:11:39.386Z,66.60
2017-09-04T20:14:07.578Z,66.20
2017-09-04T20:16:37.054Z,66.40
2017-09-04T20:19:05.248Z,66.20
2017-09-04T20:21:33.432Z,66.10
2017-09-04T20:24:01.617Z,66.20
2017-09-04T20:26:29.764Z,66.50
2017-09-04T20:28:57.928Z,66.60
2017-09-04T20:31:26.217Z,66.80
2017-09-04T20:33:54.403Z,67.30
2017-09-04T20:36:22.589Z,67.40
2017-09-04T20:38:50.715Z,67.10
2017-09-04T20:41:19.010Z,67.10
2017-09-04T20:43:47.140Z,68.20
2017-09-04T20:46:15.325Z,68.40
2017-09-04T20:48:43.480Z,68.20
2017-09-04T20:51:11.614Z,68.30
2017-09-04T20:53:41.162Z,68.00
2017-09-04T20:56:09.324Z,67.90
2017-09-04T20:58:37.478Z,68.10
2017-09-04T21:01:05.674Z,67.60
2017-09-04T21:03:33.858Z,67.40
2017-09-04T21:06:02.002Z,67.30
2017-09-04T21:08:30.154Z,67.30
2017-09-04T21:10:58.452Z,67.60
2017-09-04T21:13:26.585Z,68.10
2017-09-04T21:15:54.877Z,67.80
2017-09-04T21:18:23.052Z,68.20
2017-09-04T21:20:51.194Z,68.10
2017-09-04T21:23:19.334Z,68.00
2017-09-04T21:25:47.507Z,68.00
2017-09-04T21:28:15.654Z,67.90
2017-09-04T21:30:43.932Z,67.50
2017-09-04T21:33:12.076Z,67.80
2017-09-04T21:35:40.249Z,67.80
2017-09-04T21:38:08.450Z,67.60
2017-09-04T21:40:36.581Z,67.80
2017-09-04T21:43:05.502Z,68.00
2017-09-04T21:45:33.682Z,67.90
2017-09-04T21:48:01.863Z,68.00
2017-09-04T21:50:30.162Z,67.90
2017-09-04T21:52:58.307Z,68.90
2017-09-04T21:55:26.844Z,68.80
2017-09-04T21:57:55.057Z,69.60
2017-09-04T22:00:23.214Z,69.80
2017-09-04T22:02:51.342Z,69.00
2017-09-04T22:05:19.523Z,68.40
2017-09-04T22:07:47.812Z,68.60
2017-09-04T22:10:15.980Z,68.00
2017-09-04T22:12:44.141Z,67.70
2017-09-04T22:15:12.296Z,67.60
2017-09-04T22:17:40.430Z,67.80
2017-09-04T22:20:08.609Z,67.80
2017-09-04T22:22:36.777Z,67.10
2017-09-04T22:25:04.917Z,67.50
2017-09-04T22:27:33.205Z,67.40
2017-09-04T22:30:01.341Z,67.30
2017-09-04T22:32:29.485Z,67.50
2017-09-04T22:34:57.640Z,68.00
2017-09-04T22:37:25.779Z,68.40
2017-09-04T22:39:53.920Z,67.80
2017-09-04T22:42:22.116Z,67.50
2017-09-04T22:44:50.252Z,67.70
2017-09-04T22:47:18.399Z,67.60
2017-09-04T22:49:46.661Z,67.50
2017-09-04T22:52:14.788Z,67.80
2017-09-04T22:54:42.960Z,68.40
2017-09-04T22:57:11.105Z,68.00
2017-09-04T22:59:39.262Z,66.70
2017-09-04T23:02:07.421Z,66.80
2017-09-04T23:04:35.716Z,66.60
2017-09-04T23:07:03.863Z,66.70
2017-09-04T23:09:32.033Z,66.90
2017-09-04T23:12:00.180Z,66.70
2017-09-04T23:14:28.324Z,66.70
2017-09-04T23:16:56.508Z,66.60
2017-09-04T23:19:24.703Z,66.80
2017-09-04T23:21:52.835Z,66.50
2017-09-04T23:24:21.142Z,67.60
2017-09-04T23:26:49.300Z,67.20
2017-09-04T23:29:17.458Z,67.30
2017-09-04T23:31:45.620Z,67.30
2017-09-04T23:34:13.791Z,67.30
2017-09-04T23:36:43.219Z,67.20
2017-09-04T23:39:11.397Z,66.80
2017-09-04T23:41:39.533Z,67.40
2017-09-04T23:44:07.814Z,67.50
2017-09-04T23:46:35.944Z,67.50
2017-09-04T23:49:04.088Z,67.30
2017-09-04T23:51:32.270Z,67.60
2017-09-04T23:54:00.439Z,68.20
2017-09-04T23:56:28.593Z,67.90
2017-09-04T23:58:56.760Z,68.40
